Time;durP1;ratioP1;P1;durP2;ratioP2;P2;SDS_P1;SDS_P2;PMS_P1;PMS_P2;Temp;Humidity;BMP_temperature;BMP_pressure;BME280_temperature;BME280_humidity;BME280_pressure;Samples;Min_cycle;Max_cycle;Signal;HPM_P1;HPM_P2
2023/06/04 00:01:24;;;;;;;6.25;2.95;;;12.10;99.90;;;;;;4939468;28;20063;-75
2023/06/04 00:03:54;;;;;;;5.70;2.63;;;12.10;99.90;;;;;;4968579;28;20047;-74
2023/06/04 00:06:29;;;;;;;10.13;3.13;;;12.10;99.90;;;;;;4984225;28;20091;-74
2023/06/04 00:09:03;;;;;;;8.45;2.95;;;12.10;99.90;;;;;;4975842;28;20085;-74
2023/06/04 00:11:39;;;;;;;7.53;2.70;;;12.10;99.90;;;;;;4950985;28;20595;-74
2023/06/04 00:14:05;;;;;;;7.55;2.75;;;12.10;99.90;;;;;;4952601;28;20078;-75
2023/06/04 00:16:35;;;;;;;5.47;2.40;;;12.10;99.90;;;;;;4958843;28;20442;-73
2023/06/04 00:19:07;;;;;;;7.22;2.40;;;12.10;99.90;;;;;;4954298;28;20132;-74
2023/06/04 00:21:53;;;;;;;6.40;2.55;;;12.00;99.90;;;;;;5023612;28;20082;-75
2023/06/04 00:24:29;;;;;;;6.53;2.42;;;12.00;99.90;;;;;;5032970;28;20111;-74
2023/06/04 00:26:59;;;;;;;7.60;2.65;;;12.00;99.90;;;;;;5038846;28;20458;-75
2023/06/04 00:29:31;;;;;;;7.45;2.42;;;12.00;99.90;;;;;;5035631;28;20105;-74
2023/06/04 00:31:58;;;;;;;9.27;2.90;;;12.00;99.90;;;;;;5105791;28;20044;-74
2023/06/04 00:34:25;;;;;;;8.20;2.92;;;11.90;99.90;;;;;;5055255;28;20040;-74
2023/06/04 00:37:01;;;;;;;;;;;12.00;99.90;;;;;;5073098;28;20040;-75
2023/06/04 00:39:49;;;;;;;6.25;2.40;;;11.90;99.90;;;;;;5088184;28;19924;-75
2023/06/04 00:42:39;;;;;;;6.88;2.35;;;11.90;99.90;;;;;;5088656;28;20048;-75
2023/06/04 00:45:09;;;;;;;7.22;2.85;;;11.80;99.90;;;;;;5088195;28;20143;-74
2023/06/04 00:47:37;;;;;;;8.60;2.95;;;11.80;99.90;;;;;;5070344;28;20052;-74
2023/06/04 00:50:03;;;;;;;6.68;2.88;;;11.60;99.90;;;;;;5044760;28;20090;-74
2023/06/04 00:52:41;;;;;;;6.97;2.95;;;11.80;99.90;;;;;;5052451;28;20067;-74
2023/06/04 00:55:12;;;;;;;7.03;2.78;;;11.80;99.90;;;;;;5053055;28;20055;-73
2023/06/04 00:57:54;;;;;;;6.40;2.80;;;11.70;99.90;;;;;;5035602;28;20060;-73
2023/06/04 01:00:23;;;;;;;9.57;2.63;;;11.70;99.90;;;;;;5052923;28;20048;-75
2023/06/04 01:03:05;;;;;;;7.07;2.58;;;11.70;99.90;;;;;;5068952;28;20068;-74
2023/06/04 01:05:48;;;;;;;5.93;2.92;;;11.60;99.90;;;;;;5044146;28;20513;-75
2023/06/04 01:08:24;;;;;;;6.18;2.67;;;11.60;99.90;;;;;;5066607;28;20064;-74
2023/06/04 01:10:56;;;;;;;9.95;3.08;;;11.50;99.90;;;;;;5068258;28;20122;-75
2023/06/04 01:13:29;;;;;;;8.70;2.88;;;11.50;99.90;;;;;;5052962;28;20170;-74
2023/06/04 01:16:10;;;;;;;11.18;2.97;;;11.50;99.90;;;;;;5037438;28;20549;-74
2023/06/04 01:18:39;;;;;;;5.95;2.47;;;11.50;99.90;;;;;;5051148;28;20076;-76
2023/06/04 01:21:28;;;;;;;7.63;2.65;;;11.50;99.90;;;;;;5052398;28;20063;-75
2023/06/04 01:24:17;;;;;;;6.30;2.60;;;11.40;99.90;;;;;;5104803;28;20047;-75
2023/06/04 01:26:55;;;;;;;5.20;2.40;;;11.40;99.90;;;;;;5090568;28;20091;-74
2023/06/04 01:29:23;;;;;;;7.32;2.65;;;11.40;99.90;;;;;;5090204;28;20095;-74
2023/06/04 01:32:01;;;;;;;7.38;2.53;;;11.40;99.90;;;;;;5089557;28;20052;-74
2023/06/04 01:34:46;;;;;;;9.10;2.50;;;11.40;99.90;;;;;;5090252;28;20059;-74
2023/06/04 01:37:19;;;;;;;8.77;2.58;;;11.40;99.90;;;;;;5074169;28;20086;-75
2023/06/04 01:39:51;;;;;;;6.47;2.42;;;11.30;99.90;;;;;;5056116;28;20081;-74
2023/06/04 01:42:17;;;;;;;9.23;3.28;;;11.30;99.90;;;;;;5064553;28;20051;-74
2023/06/04 01:45:10;;;;;;;9.45;2.83;;;11.30;99.90;;;;;;5089373;28;20047;-75
2023/06/04 01:47:42;;;;;;;8.38;2.47;;;11.40;99.90;;;;;;5091303;28;20047;-75
2023/06/04 01:50:14;;;;;;;5.38;2.30;;;11.30;99.90;;;;;;5067919;28;20040;-74
2023/06/04 01:52:47;;;;;;;7.20;2.50;;;11.30;99.90;;;;;;5090395;28;20877;-75
2023/06/04 01:55:33;;;;;;;9.85;2.97;;;11.30;99.90;;;;;;5071540;28;20501;-75
2023/06/04 01:58:07;;;;;;;8.10;3.15;;;11.30;99.90;;;;;;5086684;28;20070;-74
2023/06/04 02:00:33;;;;;;;7.75;2.50;;;11.20;99.90;;;;;;5088359;28;20044;-74
2023/06/04 02:03:05;;;;;;;6.97;3.38;;;11.20;99.90;;;;;;5089669;28;20099;-74
2023/06/04 02:05:31;;;;;;;7.05;2.40;;;11.20;99.90;;;;;;5085283;28;20043;-73
2023/06/04 02:08:01;;;;;;;5.60;2.22;;;11.20;99.90;;;;;;5069159;28;20055;-74
2023/06/04 02:10:47;;;;;;;4.47;2.15;;;11.20;99.90;;;;;;5090384;28;20055;-73
2023/06/04 02:13:29;;;;;;;6.70;2.65;;;11.20;99.90;;;;;;5089956;28;20048;-74
2023/06/04 02:16:05;;;;;;;9.15;2.78;;;11.20;99.90;;;;;;5072835;28;20062;-74
2023/06/04 02:18:37;;;;;;;12.55;3.75;;;11.20;99.90;;;;;;5081430;28;20044;-73
2023/06/04 02:21:09;;;;;;;7.72;2.95;;;11.20;99.90;;;;;;5074230;28;20159;-74
2023/06/04 02:23:35;;;;;;;6.15;3.03;;;11.20;99.90;;;;;;5071372;28;20147;-74
2023/06/04 02:26:06;;;;;;;7.55;2.72;;;11.20;99.90;;;;;;5088318;28;20062;-75
2023/06/04 02:28:43;;;;;;;15.32;3.10;;;11.20;99.90;;;;;;5073418;28;20070;-74
2023/06/04 02:31:19;;;;;;;8.90;2.90;;;11.10;99.90;;;;;;5055841;28;20910;-74
2023/06/04 02:33:46;;;;;;;7.57;2.30;;;11.10;99.90;;;;;;5102988;28;20052;-74
2023/06/04 02:36:32;;;;;;;6.03;2.45;;;11.10;99.90;;;;;;5086386;28;20075;-74
2023/06/04 02:39:04;;;;;;;5.72;2.10;;;11.10;99.90;;;;;;5090459;28;20182;-74
2023/06/04 02:41:41;;;;;;;7.93;2.60;;;11.10;99.90;;;;;;5073578;28;21119;-75
2023/06/04 02:44:16;;;;;;;6.53;2.95;;;11.00;99.90;;;;;;5090878;27;20063;-74
2023/06/04 02:46:47;;;;;;;5.18;2.40;;;11.00;99.90;;;;;;5052419;28;20448;-75
2023/06/04 02:49:25;;;;;;;7.32;2.40;;;11.00;99.90;;;;;;5088569;28;20163;-74
2023/06/04 02:52:01;;;;;;;7.88;2.58;;;11.00;99.90;;;;;;5072513;28;20055;-75
2023/06/04 02:54:37;;;;;;;9.77;2.78;;;11.00;99.90;;;;;;5089887;28;20130;-74
2023/06/04 02:57:08;;;;;;;8.10;2.38;;;10.90;99.90;;;;;;5086930;28;20194;-74
2023/06/04 02:59:40;;;;;;;7.22;2.30;;;10.90;99.90;;;;;;5053541;28;20044;-74
2023/06/04 03:02:16;;;;;;;9.00;3.00;;;10.90;99.90;;;;;;5088476;28;20411;-75
2023/06/04 03:04:50;;;;;;;8.40;2.60;;;10.80;99.90;;;;;;5088292;28;20426;-74
2023/06/04 03:07:25;;;;;;;8.27;2.60;;;10.80;99.90;;;;;;5071755;28;20381;-75
2023/06/04 03:10:05;;;;;;;6.60;2.40;;;10.80;99.90;;;;;;5053967;28;20483;-74
2023/06/04 03:12:36;;;;;;;6.90;2.53;;;10.70;99.90;;;;;;5088292;28;20055;-75
2023/06/04 03:15:09;;;;;;;7.50;2.65;;;10.70;99.90;;;;;;5087820;28;20054;-74
2023/06/04 03:17:39;;;;;;;6.15;2.60;;;10.70;99.90;;;;;;5070859;28;20204;-74
2023/06/04 03:23:06;;;;;;;4.93;3.10;;;10.60;99.90;;;;;;5087682;28;20070;-74
2023/06/04 03:25:36;;;;;;;7.40;3.17;;;10.60;99.90;;;;;;5103015;28;20518;-75
2023/06/04 03:28:08;;;;;;;6.75;2.97;;;10.60;99.90;;;;;;5104105;28;20579;-73
2023/06/04 03:30:41;;;;;;;9.55;3.35;;;10.60;99.90;;;;;;5085504;28;20124;-75
2023/06/04 03:33:08;;;;;;;7.10;3.90;;;10.60;99.90;;;;;;5088057;28;20056;-73
2023/06/04 03:35:45;;;;;;;8.98;3.90;;;10.60;99.90;;;;;;5071704;28;20609;-74
2023/06/04 03:38:32;;;;;;;6.78;3.55;;;10.60;99.90;;;;;;5072433;28;20109;-74
2023/06/04 03:41:08;;;;;;;9.00;3.35;;;10.60;99.90;;;;;;5070310;28;20125;-75
2023/06/04 03:43:41;;;;;;;10.32;4.18;;;10.60;99.90;;;;;;5070845;28;20129;-74
2023/06/04 03:46:13;;;;;;;9.07;3.83;;;10.60;99.90;;;;;;5045934;28;20056;-74
2023/06/04 03:48:42;;;;;;;11.38;4.60;;;10.60;99.90;;;;;;5069570;28;20095;-75
2023/06/04 03:51:16;;;;;;;12.20;4.10;;;10.60;99.90;;;;;;5069877;28;20159;-75
2023/06/04 03:53:43;;;;;;;7.15;3.88;;;10.70;99.90;;;;;;5084274;28;20091;-75
2023/06/04 03:56:14;;;;;;;7.50;3.50;;;10.60;99.90;;;;;;5086878;28;20047;-75
2023/06/04 03:58:47;;;;;;;12.77;3.97;;;10.60;99.90;;;;;;5083657;28;20529;-75
2023/06/04 04:01:23;;;;;;;10.20;3.80;;;10.60;99.90;;;;;;5087865;28;20063;-74
2023/06/04 04:03:56;;;;;;;9.65;3.75;;;10.70;99.90;;;;;;5085259;28;20067;-74
2023/06/04 04:06:35;;;;;;;11.90;4.50;;;10.70;99.90;;;;;;5084399;28;20051;-73
2023/06/04 04:09:06;;;;;;;10.82;4.22;;;10.80;99.90;;;;;;5087405;28;20048;-74
2023/06/04 04:11:32;;;;;;;14.02;3.97;;;10.80;99.90;;;;;;5070854;28;20099;-74
2023/06/04 04:13:59;;;;;;;8.60;3.78;;;10.90;99.90;;;;;;5102662;28;20056;-75
2023/06/04 04:16:31;;;;;;;10.73;3.97;;;10.90;99.90;;;;;;5120542;27;20538;-74
2023/06/04 04:18:57;;;;;;;11.68;4.53;;;10.90;99.90;;;;;;5028352;28;20052;-73
2023/06/04 04:21:27;;;;;;;9.48;4.03;;;11.00;99.90;;;;;;5087359;28;20060;-75
2023/06/04 04:24:03;;;;;;;9.43;4.45;;;11.00;99.90;;;;;;5069168;28;20047;-74
2023/06/04 04:26:32;;;;;;;9.60;4.45;;;11.10;99.90;;;;;;5085960;28;20411;-75
2023/06/04 04:29:03;;;;;;;12.23;4.40;;;11.10;99.90;;;;;;5069655;28;20082;-75
2023/06/04 04:31:42;;;;;;;9.93;4.20;;;11.20;99.90;;;;;;5072108;28;20097;-74
2023/06/04 04:34:08;;;;;;;13.15;3.70;;;11.20;99.90;;;;;;5068165;28;20379;-74
2023/06/04 04:36:36;;;;;;;11.52;3.90;;;11.30;99.90;;;;;;5103074;28;20044;-73
2023/06/04 04:39:37;;;;;;;9.73;3.90;;;11.30;99.90;;;;;;5073470;28;20048;-73
2023/06/04 04:42:22;;;;;;;9.02;3.88;;;11.40;99.90;;;;;;5088453;28;20101;-74
2023/06/04 04:45:15;;;;;;;13.70;3.30;;;11.50;99.90;;;;;;5084658;28;20155;-75
2023/06/04 04:47:44;;;;;;;5.97;3.33;;;11.50;99.90;;;;;;5087071;28;20282;-74
2023/06/04 04:50:13;;;;;;;11.20;4.03;;;10.90;99.90;;;;;;5070187;28;20048;-75
2023/06/04 04:52:39;;;;;;;10.88;3.83;;;10.90;99.90;;;;;;5062515;28;20131;-75
2023/06/04 04:55:06;;;;;;;7.78;3.85;;;11.60;99.90;;;;;;5045080;28;20127;-75
2023/06/04 04:57:38;;;;;;;13.02;4.85;;;11.70;99.90;;;;;;5085364;28;20127;-75
2023/06/04 05:00:12;;;;;;;10.77;4.13;;;11.70;99.90;;;;;;5070149;28;20048;-75
2023/06/04 05:02:43;;;;;;;9.77;4.35;;;11.80;99.90;;;;;;5086504;28;20987;-75
2023/06/04 05:05:18;;;;;;;8.57;3.70;;;11.80;99.90;;;;;;5067991;28;20130;-75
2023/06/04 05:07:48;;;;;;;8.65;3.95;;;11.90;99.90;;;;;;5086379;28;20052;-75
2023/06/04 05:10:35;;;;;;;7.45;3.60;;;11.90;99.90;;;;;;5084747;28;20040;-75
2023/06/04 05:13:06;;;;;;;5.93;3.85;;;12.00;99.90;;;;;;5053401;28;20063;-74
2023/06/04 05:15:39;;;;;;;15.98;5.32;;;12.10;99.90;;;;;;5070357;28;20059;-74
2023/06/04 05:18:16;;;;;;;6.93;4.13;;;11.00;99.90;;;;;;5070439;28;20044;-74
2023/06/04 05:20:46;;;;;;;;;;;12.20;99.90;;;;;;5084532;28;20545;-75
2023/06/04 05:23:14;;;;;;;9.77;4.40;;;12.30;99.90;;;;;;5102158;28;19923;-75
2023/06/04 05:25:50;;;;;;;10.33;4.57;;;12.30;99.90;;;;;;5086753;28;20394;-75
2023/06/04 05:28:25;;;;;;;9.55;5.18;;;12.40;99.90;;;;;;5087663;28;20414;-75
2023/06/04 05:30:58;;;;;;;11.10;4.68;;;12.50;99.90;;;;;;5069252;28;20056;-75
2023/06/04 05:33:28;;;;;;;8.13;4.45;;;12.50;99.90;;;;;;5069833;28;20067;-76
2023/06/04 05:35:59;;;;;;;8.30;4.47;;;12.60;99.90;;;;;;5086624;28;20063;-76
2023/06/04 05:38:30;;;;;;;8.20;3.90;;;12.70;99.90;;;;;;5056516;28;20063;-77
2023/06/04 05:41:03;;;;;;;9.07;4.30;;;12.80;99.90;;;;;;5067317;28;20097;-76
2023/06/04 05:43:44;;;;;;;6.45;3.70;;;12.90;99.90;;;;;;5090486;28;20465;-75
2023/06/04 05:46:29;;;;;;;6.22;3.35;;;13.00;99.90;;;;;;5088654;28;20062;-75
2023/06/04 05:49:08;;;;;;;8.98;3.55;;;13.10;99.90;;;;;;5089813;28;20056;-75
2023/06/04 05:51:33;;;;;;;8.50;3.60;;;13.20;99.90;;;;;;5073066;28;20039;-74
2023/06/04 05:54:01;;;;;;;10.10;3.92;;;13.30;99.90;;;;;;5073423;28;20043;-74
2023/06/04 05:56:36;;;;;;;6.57;3.20;;;13.40;99.90;;;;;;5088535;28;20044;-74
2023/06/04 05:59:09;;;;;;;10.77;4.00;;;13.50;99.90;;;;;;5087591;28;20070;-74
2023/06/04 06:01:35;;;;;;;8.70;3.50;;;13.70;99.90;;;;;;5064919;28;20911;-74
2023/06/04 06:04:00;;;;;;;9.15;4.00;;;13.60;99.90;;;;;;5039955;28;20075;-74
2023/06/04 06:06:34;;;;;;;8.23;4.15;;;13.90;99.90;;;;;;5087987;28;20044;-74
2023/06/04 06:09:37;;;;;;;8.18;4.38;;;14.00;99.90;;;;;;5088819;28;20517;-74
2023/06/04 06:12:10;;;;;;;8.48;4.22;;;14.10;99.90;;;;;;5085229;28;20059;-74
2023/06/04 06:14:43;;;;;;;8.55;4.18;;;14.50;99.90;;;;;;5071633;28;20052;-74
2023/06/04 06:17:20;;;;;;;7.30;3.75;;;14.20;99.90;;;;;;5087176;28;20086;-74
2023/06/04 06:19:47;;;;;;;7.90;3.70;;;14.30;99.90;;;;;;5072444;28;20080;-73
2023/06/04 06:22:13;;;;;;;8.82;3.72;;;14.40;99.90;;;;;;5088478;28;20083;-75
2023/06/04 06:24:51;;;;;;;9.10;3.40;;;14.50;99.90;;;;;;5083681;28;20055;-75
2023/06/04 06:27:22;;;;;;;12.68;3.42;;;14.70;99.90;;;;;;5071686;28;20051;-74
2023/06/04 06:30:05;;;;;;;9.40;3.42;;;14.90;99.90;;;;;;5074609;28;20149;-74
2023/06/04 06:32:40;;;;;;;7.43;2.70;;;15.00;99.90;;;;;;5087787;28;20064;-74
2023/06/04 06:35:13;;;;;;;9.48;3.08;;;15.20;99.90;;;;;;5087700;28;20135;-74
2023/06/04 06:40:43;;;;;;;7.47;2.80;;;15.50;99.90;;;;;;5076019;28;20044;-74
2023/06/04 06:43:15;;;;;;;5.78;2.20;;;15.50;99.90;;;;;;5086051;28;20048;-75
2023/06/04 06:45:56;;;;;;;7.35;2.70;;;15.60;99.90;;;;;;5088971;28;20048;-73
2023/06/04 06:49:12;;;;;;;6.95;2.58;;;15.80;99.90;;;;;;5057390;28;20151;-74
2023/06/04 06:51:37;;;;;;;11.40;2.80;;;15.90;99.90;;;;;;5084680;28;20755;-74
2023/06/04 06:54:10;;;;;;;6.82;2.33;;;16.10;99.90;;;;;;5101555;28;20169;-74
2023/06/04 06:56:37;;;;;;;7.05;2.63;;;15.10;99.90;;;;;;5054921;28;20055;-73
2023/06/04 06:59:03;;;;;;;8.70;2.50;;;16.40;99.90;;;;;;5054600;28;20457;-74
2023/06/04 07:01:33;;;;;;;7.18;2.30;;;16.50;99.90;;;;;;5054480;28;20055;-75
2023/06/04 07:04:17;;;;;;;6.53;2.45;;;16.60;99.90;;;;;;5089480;28;20109;-74
2023/06/04 07:06:51;;;;;;;7.93;2.55;;;16.80;99.90;;;;;;5072529;28;20119;-74
2023/06/04 07:09:24;;;;;;;8.52;2.65;;;17.00;99.90;;;;;;5089419;28;20064;-75
2023/06/04 07:11:56;;;;;;;6.22;2.10;;;17.10;99.90;;;;;;5071692;28;20055;-74
2023/06/04 07:14:30;;;;;;;9.00;2.60;;;17.30;99.90;;;;;;5085863;28;20060;-75
2023/06/04 07:17:07;;;;;;;8.98;2.15;;;17.40;99.90;;;;;;5087281;28;20052;-74
2023/06/04 07:19:54;;;;;;;7.18;2.60;;;17.60;99.90;;;;;;5087520;28;20050;-74
2023/06/04 07:22:24;;;;;;;7.78;2.53;;;17.70;99.90;;;;;;5104645;28;20056;-75
2023/06/04 07:24:56;;;;;;;6.80;2.42;;;17.90;99.90;;;;;;5085606;28;20048;-75
2023/06/04 07:27:33;;;;;;;7.18;2.47;;;18.10;99.90;;;;;;5089659;28;20517;-74
2023/06/04 07:30:07;;;;;;;7.45;2.10;;;18.30;99.90;;;;;;5071222;28;20043;-75
2023/06/04 07:32:50;;;;;;;6.65;2.30;;;18.60;99.90;;;;;;5087325;28;20098;-75
2023/06/04 07:35:30;;;;;;;5.38;2.00;;;18.80;99.90;;;;;;5083589;28;20071;-76
2023/06/04 07:38:00;;;;;;;5.45;2.08;;;19.10;99.90;;;;;;5084506;28;20052;-75
2023/06/04 07:40:28;;;;;;;5.53;2.00;;;19.30;99.90;;;;;;5087223;28;20580;-75
2023/06/04 07:42:55;;;;;;;9.43;2.13;;;19.40;99.90;;;;;;5071028;28;20044;-75
2023/06/04 07:45:59;;;;;;;8.93;1.95;;;19.50;99.90;;;;;;5071769;28;20051;-76
2023/06/04 07:48:37;;;;;;;5.88;1.90;;;19.60;99.90;;;;;;5090665;28;20846;-75
2023/06/04 07:51:54;;;;;;;5.45;1.77;;;19.60;99.90;;;;;;5104297;28;20403;-76
2023/06/04 07:54:41;;;;;;;5.57;1.77;;;19.60;99.90;;;;;;5087646;28;20059;-75
2023/06/04 07:57:22;;;;;;;6.30;1.90;;;19.70;99.90;;;;;;5071078;28;20104;-74
2023/06/04 07:59:54;;;;;;;7.72;1.90;;;19.80;99.90;;;;;;5101014;28;20142;-75
2023/06/04 08:02:33;;;;;;;6.13;1.80;;;20.00;99.90;;;;;;5087945;28;20062;-75
2023/06/04 08:05:10;;;;;;;6.45;1.83;;;20.20;99.90;;;;;;5088421;28;20113;-75
2023/06/04 08:07:39;;;;;;;8.65;1.90;;;20.40;99.90;;;;;;5085049;28;20163;-75
2023/06/04 08:10:11;;;;;;;4.80;1.83;;;20.60;99.90;;;;;;5054992;28;20105;-76
2023/06/04 08:12:38;;;;;;;4.40;1.80;;;20.80;99.90;;;;;;5069930;28;20476;-76
2023/06/04 08:15:29;;;;;;;6.85;2.20;;;21.10;99.90;;;;;;5086737;28;20052;-74
2023/06/04 08:18:15;;;;;;;5.00;1.77;;;21.30;99.90;;;;;;5087863;28;20060;-74
2023/06/04 08:20:53;;;;;;;5.55;1.92;;;21.50;99.90;;;;;;5063943;28;20105;-74
2023/06/04 08:23:22;;;;;;;5.22;1.55;;;21.60;99.90;;;;;;5101999;28;20063;-74
2023/06/04 08:26:17;;;;;;;5.38;1.77;;;21.70;99.90;;;;;;5087720;28;20079;-75
2023/06/04 08:28:57;;;;;;;4.22;1.80;;;21.90;99.90;;;;;;5102767;28;20048;-73
2023/06/04 08:31:24;;;;;;;3.83;1.80;;;21.40;99.90;;;;;;5086760;28;20084;-76
2023/06/04 08:34:01;;;;;;;10.63;1.98;;;22.10;99.90;;;;;;5084194;28;20105;-74
2023/06/04 08:36:46;;;;;;;5.20;2.10;;;22.10;99.90;;;;;;5070536;28;20060;-76
2023/06/04 08:39:34;;;;;;;8.25;1.98;;;22.20;99.90;;;;;;5088900;28;20047;-76
2023/06/04 08:42:07;;;;;;;5.70;2.10;;;22.30;99.90;;;;;;5053389;28;20056;-75
2023/06/04 08:45:19;;;;;;;5.63;1.50;;;22.50;99.90;;;;;;5058463;28;20052;-76
2023/06/04 08:48:11;;;;;;;5.78;1.80;;;22.70;99.50;;;;;;5065848;28;20049;-76
2023/06/04 08:51:02;;;;;;;5.65;1.90;;;22.90;99.30;;;;;;5049433;28;20063;-75
2023/06/04 08:54:12;;;;;;;6.18;1.92;;;23.00;99.30;;;;;;5019304;28;20543;-75
2023/06/04 08:56:54;;;;;;;5.47;1.67;;;22.30;98.60;;;;;;5053200;28;20483;-75
2023/06/04 09:00:15;;;;;;;4.65;1.70;;;23.20;98.50;;;;;;5064882;28;20044;-75
2023/06/04 09:03:21;;;;;;;5.70;1.50;;;23.50;97.20;;;;;;5056243;28;20055;-75
2023/06/04 09:05:54;;;;;;;5.97;2.00;;;23.70;97.50;;;;;;5063881;28;20059;-74
2023/06/04 09:08:37;;;;;;;5.88;1.67;;;23.90;97.00;;;;;;5049309;28;20090;-75
2023/06/04 09:11:18;;;;;;;4.78;1.80;;;24.00;96.50;;;;;;5051022;28;20157;-77
2023/06/04 09:14:34;;;;;;;4.32;1.60;;;24.20;96.00;;;;;;5089835;28;20316;-75
2023/06/04 09:17:37;;;;;;;4.13;1.45;;;24.40;94.10;;;;;;5091303;28;20055;-75
2023/06/04 09:23:47;;;;;;;4.57;1.60;;;24.50;93.40;;;;;;5092063;28;20046;-75
2023/06/04 09:26:36;;;;;;;3.20;1.40;;;24.70;93.30;;;;;;5091102;28;20044;-75
2023/06/04 09:29:13;;;;;;;3.90;1.48;;;24.80;93.50;;;;;;5091237;28;20055;-75
2023/06/04 09:31:40;;;;;;;4.55;1.63;;;24.90;92.90;;;;;;5105615;28;20139;-74
2023/06/04 09:34:06;;;;;;;3.13;1.55;;;25.00;92.40;;;;;;5071198;28;20047;-74
2023/06/04 09:36:33;;;;;;;3.75;1.60;;;25.10;92.10;;;;;;5090608;28;20052;-74
2023/06/04 09:39:00;;;;;;;4.57;1.63;;;25.10;91.60;;;;;;5088443;28;20187;-75
2023/06/04 09:41:36;;;;;;;3.50;1.35;;;25.20;91.10;;;;;;5057267;28;20133;-75
2023/06/04 09:44:10;;;;;;;5.93;1.63;;;25.30;89.50;;;;;;5089958;28;20412;-75
2023/06/04 09:47:03;;;;;;;4.25;1.90;;;25.40;90.20;;;;;;5092607;28;20047;-74
2023/06/04 09:49:52;;;;;;;4.90;1.50;;;25.40;89.20;;;;;;5057804;28;20087;-75
2023/06/04 09:52:31;;;;;;;3.75;1.52;;;25.50;89.40;;;;;;5091018;28;20052;-75
2023/06/04 09:55:09;;;;;;;7.03;1.67;;;25.50;88.70;;;;;;5073971;28;20048;-75
2023/06/04 09:58:05;;;;;;;4.90;1.30;;;25.70;87.70;;;;;;5094552;28;20038;-74
2023/06/04 10:00:38;;;;;;;4.90;1.30;;;25.80;87.20;;;;;;5044600;28;20225;-75
2023/06/04 10:03:41;;;;;;;3.03;1.30;;;25.90;86.70;;;;;;5077633;28;20063;-75
2023/06/04 10:06:36;;;;;;;4.22;1.48;;;26.00;86.20;;;;;;5091227;28;20042;-75
2023/06/04 10:09:35;;;;;;;3.60;1.50;;;26.20;85.90;;;;;;5097278;27;20548;-74
2023/06/04 10:12:36;;;;;;;4.60;1.55;;;26.30;84.50;;;;;;5091711;28;20074;-74
2023/06/04 10:15:12;;;;;;;4.72;1.60;;;26.30;83.30;;;;;;5091372;28;20062;-75
2023/06/04 10:17:46;;;;;;;4.53;1.80;;;26.20;83.90;;;;;;5088336;28;20109;-75
2023/06/04 10:20:13;;;;;;;5.05;1.40;;;26.20;83.80;;;;;;5073571;28;20055;-75
2023/06/04 10:23:04;;;;;;;4.00;1.40;;;26.20;83.50;;;;;;5090775;28;20422;-75
2023/06/04 10:25:32;;;;;;;4.80;1.50;;;26.20;82.10;;;;;;5089034;28;20060;-74
2023/06/04 10:28:09;;;;;;;4.70;1.63;;;26.20;82.90;;;;;;5048095;28;20051;-75
2023/06/04 10:31:03;;;;;;;5.97;1.67;;;26.30;81.20;;;;;;5059229;28;20072;-74
2023/06/04 10:33:32;;;;;;;3.67;1.27;;;26.30;81.60;;;;;;5042339;28;20091;-74
2023/06/04 10:36:21;;;;;;;3.67;1.40;;;26.50;81.10;;;;;;5043119;28;20136;-74
2023/06/04 10:39:05;;;;;;;3.47;1.60;;;26.60;79.10;;;;;;5042748;28;20063;-75
2023/06/04 10:41:43;;;;;;;3.50;1.30;;;26.80;78.50;;;;;;5008098;28;20528;-75
2023/06/04 10:44:47;;;;;;;4.65;1.60;;;26.90;79.60;;;;;;5059782;28;20259;-75
2023/06/04 10:47:31;;;;;;;5.13;1.50;;;27.00;77.80;;;;;;5057452;28;20086;-74
2023/06/04 10:50:15;;;;;;;5.10;1.50;;;27.20;76.80;;;;;;5075064;28;20991;-75
2023/06/04 10:53:23;;;;;;;3.95;1.50;;;27.50;75.40;;;;;;5055111;28;20064;-75
2023/06/04 10:56:09;;;;;;;5.28;1.73;;;27.60;76.20;;;;;;5057297;28;20458;-73
2023/06/04 10:58:51;;;;;;;3.13;1.40;;;27.60;76.30;;;;;;5025166;28;20148;-74
2023/06/04 11:01:56;;;;;;;4.07;1.20;;;27.50;75.60;;;;;;5064726;28;20201;-75
2023/06/04 11:04:40;;;;;;;5.67;1.63;;;27.70;75.00;;;;;;5057882;28;20491;-75
2023/06/04 11:07:13;;;;;;;4.30;1.38;;;27.70;73.80;;;;;;5069187;28;20055;-74
2023/06/04 11:10:11;;;;;;;2.78;1.48;;;27.80;74.40;;;;;;5088293;28;20043;-74
2023/06/04 11:13:03;;;;;;;3.15;1.10;;;27.90;74.00;;;;;;5088143;28;20101;-74
2023/06/04 11:16:22;;;;;;;5.93;1.35;;;27.80;72.80;;;;;;5087967;28;20119;-74
2023/06/04 11:19:03;;;;;;;2.67;1.35;;;27.60;72.40;;;;;;5070034;28;20422;-74
2023/06/04 11:21:46;;;;;;;4.30;1.63;;;27.60;74.20;;;;;;5066240;28;20499;-75
2023/06/04 11:24:16;;;;;;;3.70;1.40;;;27.40;74.10;;;;;;5088300;28;20126;-74
2023/06/04 11:27:07;;;;;;;4.55;1.30;;;27.40;74.00;;;;;;5103931;28;20559;-75
2023/06/04 11:29:59;;;;;;;3.67;1.30;;;27.50;72.80;;;;;;5087441;28;20047;-75
2023/06/04 11:32:43;;;;;;;2.65;1.38;;;27.50;73.80;;;;;;5088978;28;20117;-75
2023/06/04 11:35:22;;;;;;;3.28;1.50;;;27.60;73.70;;;;;;5088295;28;20071;-74
2023/06/04 11:38:00;;;;;;;3.00;1.42;;;27.70;73.00;;;;;;5082541;28;20142;-75
2023/06/04 11:40:43;;;;;;;3.63;1.63;;;27.50;72.80;;;;;;5070965;28;20384;-74
2023/06/04 11:43:16;;;;;;;3.45;1.42;;;27.30;71.80;;;;;;5088427;28;20060;-74
2023/06/04 11:45:49;;;;;;;4.57;1.55;;;27.30;73.30;;;;;;5088680;28;20181;-73
2023/06/04 11:48:16;;;;;;;3.15;1.33;;;27.50;73.30;;;;;;5070888;28;20441;-74
2023/06/04 11:51:14;;;;;;;4.72;1.75;;;27.50;73.10;;;;;;5088900;28;20143;-73
2023/06/04 11:53:46;;;;;;;5.50;1.55;;;27.60;72.10;;;;;;5086987;28;20064;-74
2023/06/04 11:56:26;;;;;;;3.30;1.42;;;27.70;72.10;;;;;;5093299;28;20150;-73
2023/06/04 11:59:06;;;;;;;4.22;1.60;;;27.60;72.20;;;;;;5057275;28;20465;-74
2023/06/04 12:01:44;;;;;;;3.58;1.52;;;27.60;71.90;;;;;;5053537;28;20054;-76
2023/06/04 12:04:33;;;;;;;4.25;1.65;;;27.60;71.30;;;;;;5050785;28;20079;-75
2023/06/04 12:07:08;;;;;;;4.82;1.63;;;27.60;70.10;;;;;;5087750;28;20059;-74
2023/06/04 12:09:45;;;;;;;3.58;1.33;;;27.40;70.60;;;;;;5071607;28;20063;-76
2023/06/04 12:12:12;;;;;;;3.22;1.30;;;27.30;71.30;;;;;;5071234;28;20097;-75
2023/06/04 12:14:48;;;;;;;4.95;1.60;;;27.40;71.30;;;;;;5052093;28;20056;-75
2023/06/04 12:17:21;;;;;;;3.75;1.30;;;27.40;70.70;;;;;;5071113;28;20081;-75
2023/06/04 12:19:53;;;;;;;4.72;1.80;;;27.30;71.00;;;;;;5086763;28;20117;-74
2023/06/04 12:22:30;;;;;;;3.60;1.55;;;27.40;70.90;;;;;;5086797;28;20055;-73
2023/06/04 12:25:04;;;;;;;4.70;1.60;;;27.40;71.10;;;;;;5085280;28;20109;-75
2023/06/04 12:28:15;;;;;;;3.65;1.52;;;27.60;71.00;;;;;;5071891;28;20079;-74
2023/06/04 12:31:00;;;;;;;5.07;1.40;;;27.50;70.40;;;;;;5086838;28;20066;-74
2023/06/04 12:33:29;;;;;;;3.65;1.50;;;27.60;69.80;;;;;;5068927;28;20536;-75
2023/06/04 12:36:14;;;;;;;5.00;1.48;;;27.60;70.10;;;;;;5086735;28;20089;-73
2023/06/04 12:38:51;;;;;;;4.22;1.70;;;27.60;69.30;;;;;;5070899;28;20066;-74
2023/06/04 12:42:08;;;;;;;3.42;1.38;;;27.50;70.00;;;;;;5086984;28;20854;-75
2023/06/04 12:44:45;;;;;;;;;;;27.50;69.00;;;;;;5086429;28;20063;-74
2023/06/04 12:47:11;;;;;;;;;;;27.50;69.20;;;;;;5091719;28;19924;-74
2023/06/04 12:49:58;;;;;;;3.67;1.50;;;27.80;69.70;;;;;;5092214;28;20036;-75
2023/06/04 12:52:30;;;;;;;3.88;1.40;;;27.50;70.40;;;;;;5092361;28;20527;-74
2023/06/04 12:55:02;;;;;;;2.70;1.35;;;27.50;69.50;;;;;;5104913;28;20467;-75
2023/06/04 12:58:01;;;;;;;2.97;1.58;;;27.50;69.30;;;;;;5091740;28;20042;-74
2023/06/04 13:00:32;;;;;;;3.65;1.60;;;27.70;69.10;;;;;;5073948;28;20514;-75
2023/06/04 13:03:11;;;;;;;3.70;1.40;;;27.70;69.20;;;;;;5066521;28;20078;-74
2023/06/04 13:05:43;;;;;;;4.95;1.67;;;27.70;69.30;;;;;;5088993;28;20054;-75
2023/06/04 13:08:11;;;;;;;2.92;1.48;;;27.60;68.90;;;;;;5066837;28;20067;-74
2023/06/04 13:11:15;;;;;;;4.03;1.40;;;27.60;69.00;;;;;;5091342;28;20071;-74
2023/06/04 13:13:46;;;;;;;2.88;1.40;;;27.60;68.70;;;;;;5073884;28;20047;-73
2023/06/04 13:16:19;;;;;;;5.03;1.90;;;27.70;69.20;;;;;;5071596;28;20461;-75
2023/06/04 13:18:53;;;;;;;3.58;1.40;;;27.70;68.80;;;;;;5090292;28;20109;-74
2023/06/04 13:21:37;;;;;;;3.15;1.50;;;27.80;69.00;;;;;;5075347;28;20060;-75
2023/06/04 13:24:20;;;;;;;3.75;1.50;;;27.70;69.10;;;;;;5053258;28;20068;-75
2023/06/04 13:26:49;;;;;;;2.92;1.30;;;27.70;68.40;;;;;;5047590;28;20503;-74
2023/06/04 13:29:43;;;;;;;4.22;1.63;;;27.70;68.70;;;;;;5067666;28;20131;-74
2023/06/04 13:32:49;;;;;;;5.70;1.80;;;27.50;68.90;;;;;;5053607;28;20415;-76
2023/06/04 13:35:24;;;;;;;4.95;1.60;;;27.60;68.30;;;;;;5034514;28;20064;-73
2023/06/04 13:38:09;;;;;;;3.03;1.50;;;27.50;68.90;;;;;;5066572;28;20039;-75
2023/06/04 13:40:42;;;;;;;4.35;1.52;;;27.50;69.10;;;;;;5016713;28;20098;-74
2023/06/04 13:43:30;;;;;;;4.65;1.30;;;27.40;69.20;;;;;;5014963;28;20067;-75
2023/06/04 13:45:58;;;;;;;4.50;1.58;;;27.20;68.90;;;;;;5034014;28;20114;-74
2023/06/04 13:48:26;;;;;;;3.72;1.20;;;27.20;69.30;;;;;;5030004;28;20041;-75
2023/06/04 13:50:52;;;;;;;4.60;1.30;;;27.20;69.70;;;;;;5032116;28;20049;-73
2023/06/04 13:53:19;;;;;;;4.28;1.80;;;27.20;69.60;;;;;;5031176;28;20053;-74